sensor_id;sensor_type;location;lat;lon;timestamp;P1;durP1;ratioP1;P2;durP2;ratioP2
3155;SDS011;1588;50.892;7.082;2022-11-20T00:04:34;19.63;;;7.40;;
3155;SDS011;1588;50.892;7.082;2022-11-20T00:09:36;21.93;;;8.90;;
3155;SDS011;1588;50.892;7.082;2022-11-20T00:14:38;14.30;;;6.80;;
3155;SDS011;1588;50.892;7.082;2022-11-20T00:19:45;19.93;;;7.70;;
3155;SDS011;1588;50.892;7.082;2022-11-20T00:24:48;22.60;;;7.90;;
3155;SDS011;1588;50.892;7.082;2022-11-20T00:29:50;20.10;;;8.40;;
3155;SDS011;1588;50.892;7.082;2022-11-20T00:34:57;22.80;;;9.17;;
3155;SDS011;1588;50.892;7.082;2022-11-20T00:40:04;22.10;;;8.57;;
3155;SDS011;1588;50.892;7.082;2022-11-20T00:45:07;29.37;;;9.00;;
3155;SDS011;1588;50.892;7.082;2022-11-20T00:50:11;21.73;;;7.93;;
3155;SDS011;1588;50.892;7.082;2022-11-20T00:55:13;19.73;;;8.37;;
3155;SDS011;1588;50.892;7.082;2022-11-20T01:00:16;17.73;;;8.27;;
3155;SDS011;1588;50.892;7.082;2022-11-20T01:05:24;16.73;;;7.23;;
3155;SDS011;1588;50.892;7.082;2022-11-20T01:10:48;21.80;;;7.67;;
3155;SDS011;1588;50.892;7.082;2022-11-20T01:16:03;24.07;;;7.50;;
3155;SDS011;1588;50.892;7.082;2022-11-20T01:21:31;21.93;;;8.33;;
3155;SDS011;1588;50.892;7.082;2022-11-20T01:26:38;18.40;;;8.00;;
3155;SDS011;1588;50.892;7.082;2022-11-20T01:31:42;19.07;;;8.53;;
3155;SDS011;1588;50.892;7.082;2022-11-20T01:36:49;19.20;;;8.63;;
3155;SDS011;1588;50.892;7.082;2022-11-20T01:42:04;19.40;;;9.07;;
3155;SDS011;1588;50.892;7.082;2022-11-20T01:47:25;16.37;;;7.37;;
3155;SDS011;1588;50.892;7.082;2022-11-20T01:52:34;18.77;;;8.43;;
3155;SDS011;1588;50.892;7.082;2022-11-20T01:57:59;20.43;;;8.37;;
3155;SDS011;1588;50.892;7.082;2022-11-20T02:03:06;21.27;;;8.30;;
3155;SDS011;1588;50.892;7.082;2022-11-20T02:08:12;19.47;;;7.50;;
3155;SDS011;1588;50.892;7.082;2022-11-20T02:13:16;22.70;;;9.63;;
3155;SDS011;1588;50.892;7.082;2022-11-20T02:18:36;25.70;;;8.50;;
3155;SDS011;1588;50.892;7.082;2022-11-20T02:23:52;17.43;;;7.67;;
3155;SDS011;1588;50.892;7.082;2022-11-20T02:29:10;20.03;;;7.60;;
3155;SDS011;1588;50.892;7.082;2022-11-20T02:34:12;19.70;;;7.73;;
3155;SDS011;1588;50.892;7.082;2022-11-20T02:39:16;18.60;;;8.97;;
3155;SDS011;1588;50.892;7.082;2022-11-20T02:44:18;20.00;;;7.47;;
3155;SDS011;1588;50.892;7.082;2022-11-20T02:49:20;18.87;;;8.17;;
3155;SDS011;1588;50.892;7.082;2022-11-20T02:54:24;18.73;;;8.00;;
3155;SDS011;1588;50.892;7.082;2022-11-20T02:59:30;19.77;;;7.63;;
3155;SDS011;1588;50.892;7.082;2022-11-20T03:04:36;17.80;;;7.73;;
3155;SDS011;1588;50.892;7.082;2022-11-20T03:09:39;19.80;;;8.07;;
3155;SDS011;1588;50.892;7.082;2022-11-20T03:14:42;20.87;;;7.50;;
3155;SDS011;1588;50.892;7.082;2022-11-20T03:19:44;27.20;;;8.73;;
3155;SDS011;1588;50.892;7.082;2022-11-20T03:24:48;18.17;;;8.53;;
3155;SDS011;1588;50.892;7.082;2022-11-20T03:29:52;22.40;;;7.87;;
3155;SDS011;1588;50.892;7.082;2022-11-20T03:34:55;25.20;;;9.87;;
3155;SDS011;1588;50.892;7.082;2022-11-20T03:39:58;21.80;;;10.03;;
3155;SDS011;1588;50.892;7.082;2022-11-20T03:45:10;19.80;;;8.23;;
3155;SDS011;1588;50.892;7.082;2022-11-20T03:50:15;18.37;;;7.50;;
3155;SDS011;1588;50.892;7.082;2022-11-20T03:55:19;21.17;;;8.30;;
3155;SDS011;1588;50.892;7.082;2022-11-20T04:00:21;23.57;;;8.77;;
3155;SDS011;1588;50.892;7.082;2022-11-20T04:05:26;20.77;;;8.07;;
3155;SDS011;1588;50.892;7.082;2022-11-20T04:10:33;23.23;;;9.73;;
3155;SDS011;1588;50.892;7.082;2022-11-20T04:15:35;21.00;;;8.53;;
3155;SDS011;1588;50.892;7.082;2022-11-20T04:20:38;19.90;;;7.90;;
3155;SDS011;1588;50.892;7.082;2022-11-20T04:25:43;18.20;;;8.13;;
3155;SDS011;1588;50.892;7.082;2022-11-20T04:30:45;20.40;;;8.20;;
3155;SDS011;1588;50.892;7.082;2022-11-20T04:35:48;24.07;;;9.10;;
3155;SDS011;1588;50.892;7.082;2022-11-20T04:40:52;27.73;;;9.00;;
3155;SDS011;1588;50.892;7.082;2022-11-20T04:45:59;17.23;;;7.80;;
3155;SDS011;1588;50.892;7.082;2022-11-20T04:51:02;18.40;;;7.70;;
3155;SDS011;1588;50.892;7.082;2022-11-20T04:56:10;22.47;;;9.80;;
3155;SDS011;1588;50.892;7.082;2022-11-20T05:01:14;24.40;;;9.40;;
3155;SDS011;1588;50.892;7.082;2022-11-20T05:06:20;22.67;;;9.03;;
3155;SDS011;1588;50.892;7.082;2022-11-20T05:11:24;25.17;;;9.00;;
3155;SDS011;1588;50.892;7.082;2022-11-20T05:16:29;20.77;;;8.53;;
3155;SDS011;1588;50.892;7.082;2022-11-20T05:21:32;18.97;;;8.33;;
3155;SDS011;1588;50.892;7.082;2022-11-20T05:26:35;26.57;;;8.60;;
3155;SDS011;1588;50.892;7.082;2022-11-20T05:31:38;22.10;;;9.23;;
3155;SDS011;1588;50.892;7.082;2022-11-20T05:36:42;24.60;;;9.10;;
3155;SDS011;1588;50.892;7.082;2022-11-20T05:41:46;23.60;;;9.30;;
3155;SDS011;1588;50.892;7.082;2022-11-20T05:47:08;18.77;;;7.80;;
3155;SDS011;1588;50.892;7.082;2022-11-20T05:52:11;16.77;;;7.90;;
3155;SDS011;1588;50.892;7.082;2022-11-20T05:57:34;23.37;;;8.87;;
3155;SDS011;1588;50.892;7.082;2022-11-20T06:02:39;21.97;;;8.97;;
3155;SDS011;1588;50.892;7.082;2022-11-20T06:07:41;20.10;;;8.00;;
3155;SDS011;1588;50.892;7.082;2022-11-20T06:12:45;23.67;;;8.70;;
3155;SDS011;1588;50.892;7.082;2022-11-20T06:17:51;20.50;;;8.30;;
3155;SDS011;1588;50.892;7.082;2022-11-20T06:23:03;17.40;;;8.17;;
3155;SDS011;1588;50.892;7.082;2022-11-20T06:28:07;19.70;;;8.80;;
3155;SDS011;1588;50.892;7.082;2022-11-20T06:33:12;17.27;;;8.03;;
3155;SDS011;1588;50.892;7.082;2022-11-20T06:38:14;24.90;;;9.17;;
3155;SDS011;1588;50.892;7.082;2022-11-20T06:43:21;18.60;;;7.53;;
3155;SDS011;1588;50.892;7.082;2022-11-20T06:48:24;22.63;;;8.97;;
3155;SDS011;1588;50.892;7.082;2022-11-20T06:53:31;25.37;;;9.37;;
3155;SDS011;1588;50.892;7.082;2022-11-20T06:58:34;26.50;;;8.50;;
3155;SDS011;1588;50.892;7.082;2022-11-20T07:03:39;22.93;;;8.43;;
3155;SDS011;1588;50.892;7.082;2022-11-20T07:08:43;22.47;;;8.30;;
3155;SDS011;1588;50.892;7.082;2022-11-20T07:13:46;18.13;;;8.43;;
3155;SDS011;1588;50.892;7.082;2022-11-20T07:18:58;22.37;;;8.33;;
3155;SDS011;1588;50.892;7.082;2022-11-20T07:24:00;24.80;;;8.93;;
3155;SDS011;1588;50.892;7.082;2022-11-20T07:29:04;22.70;;;10.07;;
3155;SDS011;1588;50.892;7.082;2022-11-20T07:34:07;21.93;;;9.40;;
3155;SDS011;1588;50.892;7.082;2022-11-20T07:39:09;27.57;;;9.80;;
3155;SDS011;1588;50.892;7.082;2022-11-20T07:44:13;21.50;;;9.20;;
3155;SDS011;1588;50.892;7.082;2022-11-20T07:49:15;24.70;;;9.90;;
3155;SDS011;1588;50.892;7.082;2022-11-20T07:54:21;34.40;;;10.73;;
3155;SDS011;1588;50.892;7.082;2022-11-20T07:59:25;26.70;;;10.27;;
3155;SDS011;1588;50.892;7.082;2022-11-20T08:04:28;26.77;;;11.27;;
3155;SDS011;1588;50.892;7.082;2022-11-20T08:09:30;26.93;;;10.27;;
3155;SDS011;1588;50.892;7.082;2022-11-20T08:14:34;28.13;;;10.60;;
3155;SDS011;1588;50.892;7.082;2022-11-20T08:19:37;27.63;;;10.97;;
3155;SDS011;1588;50.892;7.082;2022-11-20T08:24:39;31.70;;;11.90;;
3155;SDS011;1588;50.892;7.082;2022-11-20T08:29:43;26.13;;;11.13;;
3155;SDS011;1588;50.892;7.082;2022-11-20T08:34:54;25.40;;;9.17;;
3155;SDS011;1588;50.892;7.082;2022-11-20T08:39:57;28.50;;;11.47;;
3155;SDS011;1588;50.892;7.082;2022-11-20T08:45:06;22.57;;;9.43;;
3155;SDS011;1588;50.892;7.082;2022-11-20T08:50:09;31.13;;;11.67;;
3155;SDS011;1588;50.892;7.082;2022-11-20T08:55:11;25.03;;;10.90;;
3155;SDS011;1588;50.892;7.082;2022-11-20T09:00:16;28.03;;;10.70;;
3155;SDS011;1588;50.892;7.082;2022-11-20T09:05:18;28.40;;;11.23;;
3155;SDS011;1588;50.892;7.082;2022-11-20T09:10:21;30.70;;;11.23;;
3155;SDS011;1588;50.892;7.082;2022-11-20T09:15:25;28.77;;;10.43;;
3155;SDS011;1588;50.892;7.082;2022-11-20T09:20:28;42.33;;;12.60;;
3155;SDS011;1588;50.892;7.082;2022-11-20T09:25:33;38.70;;;12.30;;
3155;SDS011;1588;50.892;7.082;2022-11-20T09:30:43;32.47;;;11.57;;
3155;SDS011;1588;50.892;7.082;2022-11-20T09:35:46;31.60;;;11.93;;
3155;SDS011;1588;50.892;7.082;2022-11-20T09:40:57;28.67;;;11.67;;
3155;SDS011;1588;50.892;7.082;2022-11-20T09:46:14;24.83;;;10.30;;
3155;SDS011;1588;50.892;7.082;2022-11-20T09:51:29;31.70;;;11.70;;
3155;SDS011;1588;50.892;7.082;2022-11-20T09:56:38;31.77;;;12.87;;
3155;SDS011;1588;50.892;7.082;2022-11-20T10:01:45;28.23;;;11.23;;
3155;SDS011;1588;50.892;7.082;2022-11-20T10:06:53;30.30;;;10.63;;
3155;SDS011;1588;50.892;7.082;2022-11-20T10:12:06;31.00;;;11.40;;
3155;SDS011;1588;50.892;7.082;2022-11-20T10:17:27;30.03;;;12.17;;
3155;SDS011;1588;50.892;7.082;2022-11-20T10:22:49;25.70;;;11.60;;
3155;SDS011;1588;50.892;7.082;2022-11-20T10:28:09;31.20;;;12.60;;
3155;SDS011;1588;50.892;7.082;2022-11-20T10:33:31;29.00;;;11.40;;
3155;SDS011;1588;50.892;7.082;2022-11-20T10:38:46;28.60;;;11.20;;
3155;SDS011;1588;50.892;7.082;2022-11-20T10:44:00;37.23;;;12.70;;
3155;SDS011;1588;50.892;7.082;2022-11-20T10:49:12;30.77;;;10.00;;
3155;SDS011;1588;50.892;7.082;2022-11-20T10:54:18;28.23;;;12.03;;
3155;SDS011;1588;50.892;7.082;2022-11-20T10:59:30;30.27;;;11.67;;
3155;SDS011;1588;50.892;7.082;2022-11-20T11:04:42;29.67;;;12.07;;
3155;SDS011;1588;50.892;7.082;2022-11-20T11:09:47;31.23;;;13.10;;
3155;SDS011;1588;50.892;7.082;2022-11-20T11:14:54;27.77;;;11.63;;
3155;SDS011;1588;50.892;7.082;2022-11-20T11:20:01;32.90;;;11.70;;
3155;SDS011;1588;50.892;7.082;2022-11-20T11:25:07;34.83;;;12.27;;
3155;SDS011;1588;50.892;7.082;2022-11-20T11:30:27;30.00;;;11.20;;
3155;SDS011;1588;50.892;7.082;2022-11-20T11:35:38;31.20;;;10.33;;
3155;SDS011;1588;50.892;7.082;2022-11-20T11:40:46;30.53;;;11.43;;
3155;SDS011;1588;50.892;7.082;2022-11-20T11:45:51;30.17;;;11.03;;
3155;SDS011;1588;50.892;7.082;2022-11-20T11:50:56;29.40;;;11.87;;
3155;SDS011;1588;50.892;7.082;2022-11-20T11:56:02;33.30;;;12.80;;
3155;SDS011;1588;50.892;7.082;2022-11-20T12:01:12;26.63;;;10.90;;
3155;SDS011;1588;50.892;7.082;2022-11-20T12:06:27;25.83;;;10.73;;
3155;SDS011;1588;50.892;7.082;2022-11-20T12:11:33;26.43;;;11.07;;
3155;SDS011;1588;50.892;7.082;2022-11-20T12:16:43;35.53;;;11.67;;
3155;SDS011;1588;50.892;7.082;2022-11-20T12:21:52;37.00;;;11.73;;
3155;SDS011;1588;50.892;7.082;2022-11-20T12:27:05;29.47;;;9.80;;
3155;SDS011;1588;50.892;7.082;2022-11-20T12:32:34;29.90;;;10.90;;
3155;SDS011;1588;50.892;7.082;2022-11-20T12:38:00;30.90;;;11.73;;
3155;SDS011;1588;50.892;7.082;2022-11-20T12:43:15;31.80;;;10.77;;
3155;SDS011;1588;50.892;7.082;2022-11-20T12:49:10;29.10;;;11.67;;
3155;SDS011;1588;50.892;7.082;2022-11-20T12:54:36;35.03;;;11.73;;
3155;SDS011;1588;50.892;7.082;2022-11-20T13:05:21;29.10;;;10.97;;
3155;SDS011;1588;50.892;7.082;2022-11-20T13:10:41;37.77;;;11.20;;
3155;SDS011;1588;50.892;7.082;2022-11-20T13:15:55;24.70;;;8.83;;
3155;SDS011;1588;50.892;7.082;2022-11-20T13:21:13;29.13;;;10.60;;
3155;SDS011;1588;50.892;7.082;2022-11-20T13:26:23;23.97;;;10.33;;
3155;SDS011;1588;50.892;7.082;2022-11-20T13:31:30;29.70;;;9.70;;
3155;SDS011;1588;50.892;7.082;2022-11-20T13:36:36;27.60;;;11.20;;
3155;SDS011;1588;50.892;7.082;2022-11-20T13:41:55;23.70;;;9.97;;
3155;SDS011;1588;50.892;7.082;2022-11-20T13:52:39;27.53;;;10.30;;
3155;SDS011;1588;50.892;7.082;2022-11-20T13:57:59;25.93;;;10.07;;
3155;SDS011;1588;50.892;7.082;2022-11-20T14:03:56;26.80;;;9.80;;
3155;SDS011;1588;50.892;7.082;2022-11-20T14:09:01;18.90;;;8.50;;
3155;SDS011;1588;50.892;7.082;2022-11-20T14:14:13;21.53;;;9.67;;
3155;SDS011;1588;50.892;7.082;2022-11-20T14:19:35;24.37;;;10.40;;
3155;SDS011;1588;50.892;7.082;2022-11-20T14:25:02;32.40;;;11.07;;
3155;SDS011;1588;50.892;7.082;2022-11-20T14:43:27;30.77;;;10.23;;
3155;SDS011;1588;50.892;7.082;2022-11-20T14:48:45;27.03;;;10.40;;
3155;SDS011;1588;50.892;7.082;2022-11-20T14:54:08;25.30;;;9.83;;
3155;SDS011;1588;50.892;7.082;2022-11-20T15:18:38;26.43;;;9.40;;
3155;SDS011;1588;50.892;7.082;2022-11-20T15:23:43;25.70;;;9.20;;
3155;SDS011;1588;50.892;7.082;2022-11-20T15:28:47;25.20;;;9.60;;
3155;SDS011;1588;50.892;7.082;2022-11-20T15:33:52;21.13;;;9.70;;
3155;SDS011;1588;50.892;7.082;2022-11-20T15:38:55;21.13;;;9.67;;
3155;SDS011;1588;50.892;7.082;2022-11-20T15:43:58;25.80;;;10.50;;
3155;SDS011;1588;50.892;7.082;2022-11-20T15:49:03;26.80;;;10.77;;
3155;SDS011;1588;50.892;7.082;2022-11-20T15:54:09;23.10;;;9.97;;
3155;SDS011;1588;50.892;7.082;2022-11-20T15:59:16;26.60;;;9.27;;
3155;SDS011;1588;50.892;7.082;2022-11-20T16:04:20;26.50;;;9.63;;
3155;SDS011;1588;50.892;7.082;2022-11-20T16:09:22;28.67;;;10.00;;
3155;SDS011;1588;50.892;7.082;2022-11-20T16:14:25;22.30;;;10.17;;
3155;SDS011;1588;50.892;7.082;2022-11-20T16:19:46;27.67;;;9.20;;
3155;SDS011;1588;50.892;7.082;2022-11-20T16:24:48;21.73;;;8.50;;
3155;SDS011;1588;50.892;7.082;2022-11-20T16:29:53;17.67;;;8.33;;
3155;SDS011;1588;50.892;7.082;2022-11-20T16:34:56;24.53;;;7.70;;
3155;SDS011;1588;50.892;7.082;2022-11-20T16:39:59;22.60;;;8.30;;
3155;SDS011;1588;50.892;7.082;2022-11-20T16:45:01;17.40;;;6.23;;
3155;SDS011;1588;50.892;7.082;2022-11-20T16:50:16;21.03;;;7.43;;
3155;SDS011;1588;50.892;7.082;2022-11-20T16:55:29;13.70;;;6.60;;
3155;SDS011;1588;50.892;7.082;2022-11-20T17:00:41;22.10;;;6.63;;
3155;SDS011;1588;50.892;7.082;2022-11-20T17:05:46;13.80;;;6.53;;
3155;SDS011;1588;50.892;7.082;2022-11-20T17:10:49;9.17;;;4.70;;
3155;SDS011;1588;50.892;7.082;2022-11-20T17:15:52;13.93;;;4.90;;
3155;SDS011;1588;50.892;7.082;2022-11-20T17:20:56;8.87;;;4.83;;
3155;SDS011;1588;50.892;7.082;2022-11-20T17:26:06;10.33;;;4.10;;
3155;SDS011;1588;50.892;7.082;2022-11-20T17:31:45;6.70;;;3.80;;
3155;SDS011;1588;50.892;7.082;2022-11-20T17:44:07;11.57;;;4.57;;
3155;SDS011;1588;50.892;7.082;2022-11-20T17:49:36;9.43;;;4.13;;
3155;SDS011;1588;50.892;7.082;2022-11-20T17:54:39;11.33;;;4.73;;
3155;SDS011;1588;50.892;7.082;2022-11-20T17:59:48;7.33;;;4.20;;
3155;SDS011;1588;50.892;7.082;2022-11-20T18:04:53;8.40;;;4.90;;
3155;SDS011;1588;50.892;7.082;2022-11-20T18:09:56;9.93;;;5.13;;
3155;SDS011;1588;50.892;7.082;2022-11-20T18:15:00;11.80;;;5.27;;
3155;SDS011;1588;50.892;7.082;2022-11-20T18:20:15;10.20;;;4.43;;
3155;SDS011;1588;50.892;7.082;2022-11-20T18:25:20;11.73;;;4.73;;
3155;SDS011;1588;50.892;7.082;2022-11-20T18:30:23;9.57;;;5.30;;
3155;SDS011;1588;50.892;7.082;2022-11-20T18:35:26;10.97;;;5.47;;
3155;SDS011;1588;50.892;7.082;2022-11-20T18:40:29;9.37;;;5.17;;
3155;SDS011;1588;50.892;7.082;2022-11-20T18:45:33;13.30;;;5.00;;
3155;SDS011;1588;50.892;7.082;2022-11-20T18:50:38;14.70;;;5.00;;
3155;SDS011;1588;50.892;7.082;2022-11-20T18:55:42;7.30;;;4.10;;
3155;SDS011;1588;50.892;7.082;2022-11-20T19:00:46;6.07;;;3.50;;
3155;SDS011;1588;50.892;7.082;2022-11-20T19:05:57;12.30;;;4.70;;
3155;SDS011;1588;50.892;7.082;2022-11-20T19:11:23;7.63;;;4.10;;
3155;SDS011;1588;50.892;7.082;2022-11-20T19:16:27;10.70;;;5.00;;
3155;SDS011;1588;50.892;7.082;2022-11-20T19:21:29;13.17;;;5.00;;
3155;SDS011;1588;50.892;7.082;2022-11-20T19:26:38;7.70;;;4.33;;
3155;SDS011;1588;50.892;7.082;2022-11-20T19:37:33;20.73;;;4.70;;
3155;SDS011;1588;50.892;7.082;2022-11-20T19:42:38;12.07;;;4.40;;
3155;SDS011;1588;50.892;7.082;2022-11-20T19:53:33;9.13;;;4.63;;
3155;SDS011;1588;50.892;7.082;2022-11-20T19:58:36;19.97;;;5.37;;
3155;SDS011;1588;50.892;7.082;2022-11-20T20:03:40;17.40;;;4.43;;
3155;SDS011;1588;50.892;7.082;2022-11-20T20:08:46;12.40;;;5.00;;
3155;SDS011;1588;50.892;7.082;2022-11-20T20:13:54;27.30;;;5.23;;
3155;SDS011;1588;50.892;7.082;2022-11-20T20:19:15;13.90;;;4.13;;
3155;SDS011;1588;50.892;7.082;2022-11-20T20:24:28;18.97;;;4.20;;
3155;SDS011;1588;50.892;7.082;2022-11-20T20:30:15;20.80;;;4.43;;
3155;SDS011;1588;50.892;7.082;2022-11-20T20:35:23;16.50;;;4.53;;
3155;SDS011;1588;50.892;7.082;2022-11-20T20:40:36;17.23;;;3.63;;
3155;SDS011;1588;50.892;7.082;2022-11-20T20:45:45;8.63;;;3.60;;
3155;SDS011;1588;50.892;7.082;2022-11-20T20:50:56;20.83;;;3.70;;
3155;SDS011;1588;50.892;7.082;2022-11-20T20:56:02;17.53;;;3.80;;
3155;SDS011;1588;50.892;7.082;2022-11-20T21:01:05;8.97;;;2.80;;
3155;SDS011;1588;50.892;7.082;2022-11-20T21:06:20;9.30;;;3.07;;
3155;SDS011;1588;50.892;7.082;2022-11-20T21:11:29;14.93;;;3.40;;
3155;SDS011;1588;50.892;7.082;2022-11-20T21:16:34;12.83;;;2.60;;
3155;SDS011;1588;50.892;7.082;2022-11-20T21:21:47;22.80;;;2.67;;
3155;SDS011;1588;50.892;7.082;2022-11-20T21:27:07;10.20;;;2.10;;
3155;SDS011;1588;50.892;7.082;2022-11-20T21:32:10;11.40;;;2.00;;
3155;SDS011;1588;50.892;7.082;2022-11-20T21:37:26;3.80;;;1.60;;
3155;SDS011;1588;50.892;7.082;2022-11-20T21:42:28;10.23;;;2.37;;
3155;SDS011;1588;50.892;7.082;2022-11-20T21:47:31;17.50;;;2.90;;
3155;SDS011;1588;50.892;7.082;2022-11-20T21:52:35;16.23;;;2.77;;
3155;SDS011;1588;50.892;7.082;2022-11-20T21:57:38;16.00;;;3.47;;
3155;SDS011;1588;50.892;7.082;2022-11-20T22:02:41;13.50;;;1.90;;
3155;SDS011;1588;50.892;7.082;2022-11-20T22:07:49;10.20;;;2.47;;
3155;SDS011;1588;50.892;7.082;2022-11-20T22:12:52;14.80;;;3.10;;
3155;SDS011;1588;50.892;7.082;2022-11-20T22:18:17;6.83;;;2.13;;
3155;SDS011;1588;50.892;7.082;2022-11-20T22:23:23;13.30;;;2.17;;
3155;SDS011;1588;50.892;7.082;2022-11-20T22:28:28;7.63;;;2.23;;
3155;SDS011;1588;50.892;7.082;2022-11-20T22:33:33;8.87;;;1.80;;
3155;SDS011;1588;50.892;7.082;2022-11-20T22:38:45;18.97;;;2.93;;
3155;SDS011;1588;50.892;7.082;2022-11-20T22:43:54;5.83;;;2.53;;
3155;SDS011;1588;50.892;7.082;2022-11-20T22:49:10;11.63;;;2.63;;
3155;SDS011;1588;50.892;7.082;2022-11-20T22:54:17;14.63;;;3.20;;
3155;SDS011;1588;50.892;7.082;2022-11-20T22:59:22;18.97;;;3.17;;
3155;SDS011;1588;50.892;7.082;2022-11-20T23:04:33;8.10;;;2.27;;
3155;SDS011;1588;50.892;7.082;2022-11-20T23:09:37;11.17;;;2.70;;
3155;SDS011;1588;50.892;7.082;2022-11-20T23:14:42;19.90;;;3.10;;
3155;SDS011;1588;50.892;7.082;2022-11-20T23:19:45;15.87;;;3.27;;
3155;SDS011;1588;50.892;7.082;2022-11-20T23:24:51;10.90;;;3.40;;
3155;SDS011;1588;50.892;7.082;2022-11-20T23:29:56;8.60;;;2.70;;
3155;SDS011;1588;50.892;7.082;2022-11-20T23:35:02;12.13;;;3.40;;
3155;SDS011;1588;50.892;7.082;2022-11-20T23:40:06;19.27;;;3.50;;
3155;SDS011;1588;50.892;7.082;2022-11-20T23:45:10;10.40;;;3.30;;
3155;SDS011;1588;50.892;7.082;2022-11-20T23:50:14;23.47;;;4.00;;
3155;SDS011;1588;50.892;7.082;2022-11-20T23:55:19;6.67;;;3.00;;
